createdAt,value
2018-06-09T00:00:08.828Z,42.37
2018-06-09T00:02:37.907Z,44.20
2018-06-09T00:05:06.721Z,43.10
2018-06-09T00:07:36.614Z,44.60
2018-06-09T00:10:05.980Z,45.33
2018-06-09T00:12:35.115Z,45.83
2018-06-09T00:15:04.361Z,45.00
2018-06-09T00:17:33.571Z,46.73
2018-06-09T00:20:02.648Z,42.40
2018-06-09T00:22:31.651Z,43.40
2018-06-09T00:25:01.506Z,45.90
2018-06-09T00:27:31.067Z,46.37
2018-06-09T00:29:59.595Z,40.30
2018-06-09T00:32:28.577Z,45.17
2018-06-09T00:34:58.382Z,45.10
2018-06-09T00:37:27.262Z,44.75
2018-06-09T00:39:56.451Z,47.00
2018-06-09T00:42:25.653Z,56.00
2018-06-09T00:44:54.953Z,44.10
2018-06-09T00:47:24.527Z,44.80
2018-06-09T00:49:53.681Z,41.70
2018-06-09T00:52:22.844Z,42.10
2018-06-09T00:54:53.058Z,44.00
2018-06-09T00:57:22.160Z,41.90
2018-06-09T00:59:51.014Z,43.40
2018-06-09T01:02:20.300Z,44.70
2018-06-09T01:04:49.261Z,42.77
2018-06-09T01:07:18.418Z,42.50
2018-06-09T01:09:47.455Z,41.80
2018-06-09T01:12:16.529Z,45.00
2018-06-09T01:14:47.186Z,43.30
2018-06-09T01:17:17.079Z,42.50
2018-06-09T01:19:45.741Z,41.85
2018-06-09T01:22:16.759Z,44.10
2018-06-09T01:24:45.831Z,48.30
2018-06-09T01:27:14.824Z,43.30
2018-06-09T01:29:43.784Z,47.95
2018-06-09T01:32:13.036Z,45.67
2018-06-09T01:34:42.307Z,46.15
2018-06-09T01:37:11.067Z,45.30
2018-06-09T01:39:40.294Z,46.73
2018-06-09T01:42:09.914Z,46.80
2018-06-09T01:44:38.895Z,50.45
2018-06-09T01:47:07.994Z,49.50
2018-06-09T01:49:37.057Z,49.60
2018-06-09T01:52:06.123Z,51.40
2018-06-09T01:54:35.175Z,49.65
2018-06-09T01:57:03.831Z,51.95
2018-06-09T01:59:32.933Z,52.60
2018-06-09T02:02:01.764Z,51.90
2018-06-09T02:04:30.816Z,52.90
2018-06-09T02:06:59.847Z,51.75
2018-06-09T02:09:28.783Z,53.85
2018-06-09T02:11:57.870Z,56.85
2018-06-09T02:14:26.746Z,52.00
2018-06-09T02:16:55.971Z,54.70
2018-06-09T02:19:24.912Z,54.73
2018-06-09T02:21:54.483Z,56.80
2018-06-09T02:24:24.084Z,57.90
2018-06-09T02:26:53.121Z,57.40
2018-06-09T02:29:22.075Z,57.40
2018-06-09T02:31:50.803Z,58.05
2018-06-09T02:34:19.693Z,57.75
2018-06-09T02:36:48.791Z,57.60
2018-06-09T02:39:18.159Z,55.30
2018-06-09T02:41:47.290Z,58.20
2018-06-09T02:44:16.423Z,54.30
2018-06-09T02:49:13.587Z,58.05
2018-06-09T02:51:42.342Z,58.70
2018-06-09T02:54:11.253Z,59.10
2018-06-09T02:56:41.152Z,59.60
2018-06-09T02:59:10.092Z,65.00
2018-06-09T03:01:39.364Z,62.70
2018-06-09T03:04:09.578Z,63.70
2018-06-09T03:26:24.999Z,65.70
2018-06-09T03:31:22.123Z,65.80
2018-06-09T03:33:51.250Z,63.80
2018-06-09T03:51:08.953Z,63.30
2018-06-09T03:56:06.120Z,64.90
2018-06-09T03:58:35.127Z,63.00
2018-06-09T04:01:04.282Z,61.40
2018-06-09T04:03:33.115Z,68.90
2018-06-09T04:06:02.019Z,62.60
2018-06-09T04:08:30.814Z,63.10
2018-06-09T04:15:56.850Z,64.30
2018-06-09T04:18:25.760Z,61.20
2018-06-09T04:20:55.400Z,61.65
2018-06-09T04:28:21.334Z,56.30
2018-06-09T04:30:50.238Z,57.80
2018-06-09T04:33:19.218Z,60.55
2018-06-09T04:45:42.153Z,58.65
2018-06-09T04:48:10.981Z,58.65
2018-06-09T04:50:40.018Z,60.57
2018-06-09T04:53:09.154Z,60.10
2018-06-09T04:55:38.014Z,57.00
2018-06-09T04:58:07.330Z,56.43
2018-06-09T05:00:36.331Z,56.35
2018-06-09T05:03:05.416Z,52.80
2018-06-09T05:05:34.494Z,51.50
2018-06-09T05:08:03.498Z,51.53
2018-06-09T05:10:32.672Z,52.80
2018-06-09T05:40:20.633Z,49.30
2018-06-09T05:50:16.358Z,44.50
2018-06-09T05:52:46.038Z,50.60
2018-06-09T05:55:15.070Z,45.60
2018-06-09T06:02:40.852Z,47.35
2018-06-09T06:07:38.409Z,49.90
2018-06-09T06:10:07.496Z,49.60
2018-06-09T06:12:36.924Z,48.70
2018-06-09T06:15:06.126Z,49.30
2018-06-09T06:17:38.611Z,49.80
2018-06-09T06:25:07.945Z,50.20
2018-06-09T06:27:37.358Z,48.15
2018-06-09T06:30:06.852Z,44.80
2018-06-09T06:32:36.400Z,45.80
2018-06-09T06:35:05.647Z,45.60
2018-06-09T06:37:35.770Z,43.90
2018-06-09T06:40:04.929Z,42.05
2018-06-09T06:42:34.320Z,63.45
2018-06-09T06:45:03.652Z,55.20
2018-06-09T06:47:32.806Z,42.30
2018-06-09T06:50:05.515Z,45.00
2018-06-09T06:52:34.420Z,46.30
2018-06-09T06:55:03.400Z,45.40
2018-06-09T06:57:32.242Z,41.00
2018-06-09T07:00:00.787Z,43.35
2018-06-09T07:02:29.830Z,44.45
2018-06-09T07:04:58.938Z,42.50
2018-06-09T07:07:27.972Z,40.33
2018-06-09T07:09:57.280Z,38.80
2018-06-09T07:12:26.447Z,40.85
2018-06-09T07:15:00.213Z,44.23
2018-06-09T07:17:30.628Z,41.20
2018-06-09T07:20:00.173Z,45.47
2018-06-09T07:22:29.422Z,42.27
2018-06-09T07:24:58.654Z,44.45
2018-06-09T07:27:27.682Z,42.20
2018-06-09T07:29:57.743Z,45.10
2018-06-09T07:32:27.050Z,45.20
2018-06-09T07:34:56.317Z,43.80
2018-06-09T07:37:25.248Z,43.10
2018-06-09T07:39:54.178Z,43.40
2018-06-09T07:42:23.438Z,41.65
2018-06-09T07:44:52.851Z,41.90
2018-06-09T07:47:22.074Z,44.05
2018-06-09T07:49:51.360Z,43.10
2018-06-09T07:52:20.617Z,45.40
2018-06-09T07:54:49.959Z,42.83
2018-06-09T07:57:19.220Z,43.55
2018-06-09T07:59:48.204Z,44.40
2018-06-09T08:02:17.683Z,41.27
2018-06-09T08:04:46.951Z,42.90
2018-06-09T08:07:17.369Z,45.05
2018-06-09T08:09:47.629Z,47.20
2018-06-09T08:12:17.299Z,45.70
2018-06-09T08:14:47.477Z,45.30
2018-06-09T08:17:16.826Z,49.35
2018-06-09T08:19:45.566Z,45.80
2018-06-09T08:22:15.826Z,47.80
2018-06-09T08:24:45.577Z,44.27
2018-06-09T08:27:14.488Z,46.37
2018-06-09T08:29:44.336Z,47.27
2018-06-09T08:32:15.641Z,46.17
2018-06-09T08:34:45.618Z,46.60
2018-06-09T08:37:15.711Z,49.10
2018-06-09T08:39:45.757Z,45.97
2018-06-09T08:42:16.903Z,50.50
2018-06-09T08:44:46.288Z,49.00
2018-06-09T08:47:16.117Z,54.40
2018-06-09T08:49:45.856Z,49.43
2018-06-09T08:52:15.548Z,53.00
2018-06-09T08:54:45.392Z,49.80
2018-06-09T08:57:15.780Z,47.73
2018-06-09T08:59:45.388Z,45.30
2018-06-09T09:02:17.083Z,46.93
2018-06-09T09:04:46.078Z,48.50
2018-06-09T09:07:15.918Z,46.83
2018-06-09T09:09:51.805Z,44.33
2018-06-09T09:12:21.791Z,48.57
2018-06-09T09:14:51.464Z,46.57
2018-06-09T09:17:21.758Z,42.70
2018-06-09T09:19:51.333Z,44.40
2018-06-09T09:22:23.698Z,46.63
2018-06-09T09:24:53.427Z,49.70
2018-06-09T09:27:22.905Z,48.80
2018-06-09T09:29:53.288Z,48.30
2018-06-09T09:35:38.565Z,53.20
2018-06-09T09:43:33.408Z,55.90
2018-06-09T09:46:10.170Z,51.47
2018-06-09T09:48:49.067Z,50.97
2018-06-09T09:51:25.811Z,54.55
2018-06-09T09:54:03.350Z,53.93
2018-06-09T09:56:37.404Z,55.23
2018-06-09T09:59:22.614Z,54.53
2018-06-09T10:02:04.643Z,55.90
2018-06-09T10:04:42.181Z,58.30
2018-06-09T10:07:13.185Z,59.30
2018-06-09T10:09:44.974Z,63.80
2018-06-09T10:12:22.203Z,61.10
2018-06-09T10:17:43.356Z,63.07
2018-06-09T10:20:21.236Z,60.80
2018-06-09T10:23:07.401Z,58.67
2018-06-09T10:25:40.318Z,59.40
2018-06-09T10:28:15.957Z,59.80
2018-06-09T10:30:58.240Z,60.27
2018-06-09T10:33:35.530Z,51.67
2018-06-09T10:36:12.200Z,50.20
2018-06-09T10:38:48.117Z,48.83
2018-06-09T10:41:26.690Z,46.10
2018-06-09T10:44:04.238Z,44.70
2018-06-09T10:46:39.346Z,47.37
2018-06-09T10:49:09.960Z,45.80
2018-06-09T10:51:39.284Z,46.97
2018-06-09T10:54:08.772Z,50.37
2018-06-09T10:56:38.826Z,49.10
2018-06-09T10:59:07.710Z,55.93
2018-06-09T11:01:36.690Z,50.93
2018-06-09T11:04:06.009Z,58.93
2018-06-09T11:06:35.137Z,53.87
2018-06-09T11:09:06.100Z,57.60
2018-06-09T11:11:35.224Z,54.70
2018-06-09T11:14:05.087Z,55.63
2018-06-09T11:16:38.205Z,53.03
2018-06-09T11:19:08.056Z,52.97
2018-06-09T11:21:38.231Z,49.23
2018-06-09T11:24:07.816Z,47.93
2018-06-09T11:26:37.417Z,49.50
2018-06-09T11:29:07.579Z,49.20
2018-06-09T11:31:37.117Z,56.63
2018-06-09T11:34:06.746Z,58.85
2018-06-09T11:36:36.366Z,56.10
2018-06-09T11:39:08.553Z,56.67
2018-06-09T11:41:38.437Z,52.23
2018-06-09T11:44:08.719Z,53.93
2018-06-09T11:46:37.966Z,57.03
2018-06-09T11:49:07.996Z,56.65
2018-06-09T11:51:37.259Z,55.43
2018-06-09T11:54:07.866Z,55.20
2018-06-09T11:56:37.761Z,52.30
2018-06-09T11:59:07.249Z,53.67
2018-06-09T12:01:39.133Z,59.40
2018-06-09T12:04:08.861Z,55.87
2018-06-09T12:06:37.943Z,57.10
2018-06-09T12:09:12.327Z,55.00
2018-06-09T12:14:23.087Z,58.10
2018-06-09T12:16:52.892Z,57.40
2018-06-09T12:19:22.330Z,60.50
2018-06-09T12:21:51.260Z,59.70
2018-06-09T12:24:22.345Z,61.37
2018-06-09T12:26:53.114Z,61.90
2018-06-09T12:29:23.197Z,57.07
2018-06-09T12:31:58.610Z,54.13
2018-06-09T12:34:28.229Z,50.63
2018-06-09T12:36:57.746Z,50.50
2018-06-09T12:39:28.690Z,49.00
2018-06-09T12:41:59.722Z,54.33
2018-06-09T12:44:29.768Z,53.10
2018-06-09T12:47:02.108Z,52.97
2018-06-09T12:49:31.624Z,49.90
2018-06-09T12:52:01.291Z,49.80
2018-06-09T12:54:32.447Z,53.73
2018-06-09T12:57:04.752Z,51.33
2018-06-09T12:59:36.053Z,51.97
2018-06-09T13:02:08.563Z,51.50
2018-06-09T13:04:43.550Z,47.77
2018-06-09T13:07:13.404Z,55.47
2018-06-09T13:09:42.927Z,51.40
2018-06-09T13:12:20.966Z,51.70
2018-06-09T13:14:51.712Z,48.67
2018-06-09T13:17:21.886Z,49.03
2018-06-09T13:19:52.942Z,48.73
2018-06-09T13:22:22.686Z,50.37
2018-06-09T13:24:52.307Z,49.60
2018-06-09T13:27:24.586Z,50.10
2018-06-09T13:29:57.149Z,46.73
2018-06-09T13:32:34.325Z,48.00
2018-06-09T13:35:14.612Z,47.80
2018-06-09T13:37:49.372Z,47.53
2018-06-09T13:40:21.122Z,46.60
2018-06-09T13:42:50.952Z,48.23
2018-06-09T13:45:26.339Z,46.40
2018-06-09T13:47:55.756Z,44.77
2018-06-09T13:50:25.316Z,42.67
2018-06-09T13:52:57.601Z,39.87
2018-06-09T13:55:27.587Z,40.77
2018-06-09T13:57:57.051Z,39.40
2018-06-09T14:00:27.602Z,41.70
2018-06-09T14:02:57.644Z,40.27
2018-06-09T14:05:26.886Z,40.37
2018-06-09T14:07:56.131Z,40.10
2018-06-09T14:10:25.362Z,41.07
2018-06-09T14:22:50.943Z,43.20
2018-06-09T14:25:24.642Z,39.03
2018-06-09T14:27:54.231Z,35.70
2018-06-09T14:30:24.243Z,41.13
2018-06-09T14:32:54.194Z,38.10
2018-06-09T14:35:23.547Z,38.73
2018-06-09T14:37:52.941Z,34.83
2018-06-09T14:40:24.124Z,39.67
2018-06-09T14:42:55.035Z,40.30
2018-06-09T14:45:24.518Z,43.27
2018-06-09T14:47:53.819Z,41.93
2018-06-09T14:50:23.736Z,38.50
2018-06-09T14:52:53.344Z,34.83
2018-06-09T14:55:22.585Z,36.40
2018-06-09T14:57:52.227Z,43.03
2018-06-09T15:00:23.530Z,41.50
2018-06-09T15:02:52.912Z,45.90
2018-06-09T15:05:22.760Z,43.20
2018-06-09T15:07:53.539Z,43.53
2018-06-09T15:10:22.420Z,46.20
2018-06-09T15:12:54.748Z,42.80
2018-06-09T15:27:48.258Z,28.20
2018-06-09T15:30:27.152Z,29.60
2018-06-09T15:37:55.764Z,31.50
2018-06-09T15:42:59.534Z,28.60
2018-06-09T15:50:28.291Z,27.80
2018-06-09T15:52:59.346Z,28.70
2018-06-09T15:55:29.077Z,30.77
2018-06-09T15:58:01.083Z,27.30
2018-06-09T16:05:28.714Z,27.60
2018-06-09T16:23:28.503Z,25.00
2018-06-09T16:25:58.669Z,22.90
2018-06-09T16:28:30.989Z,22.73
2018-06-09T16:31:01.398Z,22.50
2018-06-09T16:33:36.248Z,25.07
2018-06-09T16:36:07.448Z,20.80
2018-06-09T16:38:38.962Z,24.73
2018-06-09T16:41:09.269Z,24.47
2018-06-09T16:43:38.589Z,23.20
2018-06-09T16:46:09.206Z,22.80
2018-06-09T16:48:39.740Z,23.63
2018-06-09T16:51:10.096Z,24.40
2018-06-09T16:53:39.582Z,22.63
2018-06-09T16:56:10.000Z,19.90
2018-06-09T17:11:09.326Z,22.90
2018-06-09T17:13:41.041Z,22.50
2018-06-09T17:18:41.103Z,25.30
2018-06-09T18:41:07.843Z,25.50
2018-06-09T18:43:37.092Z,28.40
2018-06-09T18:46:07.023Z,25.60
2018-06-09T18:48:38.305Z,26.40
2018-06-09T20:50:27.007Z,29.90
2018-06-09T20:55:24.818Z,27.55
2018-06-09T20:57:53.837Z,27.20
2018-06-09T21:00:22.999Z,29.00
2018-06-09T21:02:51.978Z,30.00
2018-06-09T21:05:20.665Z,27.40
2018-06-09T21:07:50.150Z,28.60
2018-06-09T21:10:20.686Z,30.00
2018-06-09T21:12:49.631Z,29.20
2018-06-09T21:15:18.828Z,29.60
2018-06-09T21:17:47.558Z,29.60
2018-06-09T21:20:16.099Z,28.60
2018-06-09T21:22:44.668Z,31.37
2018-06-09T21:25:14.204Z,29.20
2018-06-09T21:27:48.148Z,30.10
2018-06-09T21:30:16.742Z,31.50
2018-06-09T21:32:47.411Z,29.70
2018-06-09T21:35:33.607Z,30.20
2018-06-09T21:38:07.889Z,28.90
2018-06-09T21:40:41.882Z,29.95
2018-06-09T21:43:15.798Z,30.15
2018-06-09T21:45:49.920Z,29.07
2018-06-09T21:48:19.626Z,28.60
2018-06-09T21:50:48.241Z,32.20
2018-06-09T21:53:16.791Z,29.83
2018-06-09T21:55:45.378Z,30.70
2018-06-09T21:58:13.956Z,30.80
2018-06-09T22:00:42.509Z,28.97
2018-06-09T22:03:11.129Z,30.87
2018-06-09T22:05:39.654Z,29.13
2018-06-09T22:08:08.177Z,29.90
2018-06-09T22:10:36.740Z,31.00
2018-06-09T22:13:05.469Z,30.40
2018-06-09T22:15:33.931Z,31.00
2018-06-09T22:18:02.600Z,31.60
2018-06-09T22:20:31.072Z,30.67
2018-06-09T22:22:59.602Z,32.70
2018-06-09T22:26:02.110Z,31.80
2018-06-09T22:28:32.025Z,32.55
2018-06-09T22:31:02.219Z,32.43
2018-06-09T22:33:32.105Z,32.80
2018-06-09T22:36:00.669Z,32.60
2018-06-09T22:38:29.470Z,33.60
2018-06-09T22:40:58.058Z,34.67
2018-06-09T22:43:26.601Z,33.53
2018-06-09T22:45:55.242Z,33.43
2018-06-09T22:48:23.937Z,33.93
2018-06-09T22:50:52.668Z,32.00
2018-06-09T22:53:21.457Z,35.20
2018-06-09T22:55:50.075Z,33.97
2018-06-09T22:58:19.752Z,33.23
2018-06-09T23:00:49.972Z,35.30
2018-06-09T23:03:19.320Z,33.13
2018-06-09T23:05:48.559Z,33.47
2018-06-09T23:08:18.384Z,32.87
2018-06-09T23:10:47.762Z,33.60
2018-06-09T23:13:16.508Z,38.10
2018-06-09T23:15:45.201Z,38.17
2018-06-09T23:18:14.328Z,34.23
2018-06-09T23:20:42.721Z,36.45
2018-06-09T23:23:12.024Z,36.80
2018-06-09T23:25:41.004Z,37.90
2018-06-09T23:28:09.879Z,37.07
2018-06-09T23:30:38.556Z,37.50
2018-06-09T23:33:07.123Z,41.10
2018-06-09T23:35:35.714Z,37.85
2018-06-09T23:38:04.978Z,41.73
2018-06-09T23:40:34.756Z,39.70
2018-06-09T23:43:03.437Z,42.90
2018-06-09T23:45:31.756Z,40.20
2018-06-09T23:48:01.303Z,40.90
2018-06-09T23:50:30.867Z,42.55
2018-06-09T23:52:59.463Z,41.45
2018-06-09T23:55:28.114Z,43.00
2018-06-09T23:57:56.837Z,41.13
